createdAt,value
2023-05-13T00:01:32.367Z,10.40
2023-05-13T00:06:39.323Z,10.40
2023-05-13T00:11:43.445Z,10.40
2023-05-13T00:16:48.462Z,10.40
2023-05-13T00:22:00.182Z,10.40
2023-05-13T00:27:04.786Z,10.40
2023-05-13T00:32:11.752Z,10.40
2023-05-13T00:37:15.354Z,10.30
2023-05-13T00:42:23.392Z,10.30
2023-05-13T00:47:37.725Z,10.20
2023-05-13T00:52:47.525Z,10.20
2023-05-13T00:57:58.450Z,10.20
2023-05-13T01:03:12.242Z,10.20
2023-05-13T01:08:22.195Z,10.20
2023-05-13T01:13:43.529Z,10.20
2023-05-13T01:18:53.977Z,10.10
2023-05-13T01:24:11.579Z,10.10
2023-05-13T01:29:31.049Z,10.10
2023-05-13T01:34:40.161Z,10.10
2023-05-13T01:39:48.141Z,10.10
2023-05-13T01:44:53.439Z,10.10
2023-05-13T01:50:09.816Z,10.10
2023-05-13T01:55:27.943Z,10.10
2023-05-13T02:00:35.584Z,10.10
2023-05-13T02:05:41.081Z,10.10
2023-05-13T02:10:56.484Z,10.10
2023-05-13T02:16:00.201Z,10.10
2023-05-13T02:21:11.379Z,10.10
2023-05-13T02:26:16.419Z,10.10
2023-05-13T02:31:53.165Z,10.10
2023-05-13T02:36:58.999Z,10.10
2023-05-13T02:42:05.225Z,10.10
2023-05-13T02:47:25.929Z,10.10
2023-05-13T02:52:30.551Z,10.00
2023-05-13T02:57:38.042Z,10.10
2023-05-13T03:02:42.767Z,10.10
2023-05-13T03:07:47.654Z,10.10
2023-05-13T03:12:54.712Z,10.00
2023-05-13T03:18:29.050Z,10.00
2023-05-13T03:23:40.913Z,10.00
2023-05-13T03:28:46.426Z,9.90
2023-05-13T03:33:50.253Z,9.90
2023-05-13T03:38:54.209Z,9.90
2023-05-13T03:44:00.136Z,9.80
2023-05-13T03:49:04.427Z,9.80
2023-05-13T03:54:07.878Z,9.80
2023-05-13T03:59:12.693Z,9.80
2023-05-13T04:04:16.359Z,9.80
2023-05-13T04:09:21.389Z,9.70
2023-05-13T04:14:26.323Z,9.70
2023-05-13T04:19:29.932Z,9.70
2023-05-13T04:24:33.276Z,9.80
2023-05-13T04:29:39.167Z,9.70
2023-05-13T04:34:42.566Z,9.70
2023-05-13T04:39:49.391Z,9.60
2023-05-13T04:44:56.868Z,9.60
2023-05-13T04:50:02.414Z,9.60
2023-05-13T04:55:08.096Z,9.50
2023-05-13T05:00:16.574Z,9.60
2023-05-13T05:05:20.292Z,9.60
2023-05-13T05:10:23.960Z,9.70
2023-05-13T05:15:29.948Z,9.70
2023-05-13T05:20:33.433Z,9.80
2023-05-13T05:25:38.282Z,10.00
2023-05-13T05:30:43.368Z,10.00
2023-05-13T05:35:47.219Z,10.00
2023-05-13T05:40:50.611Z,10.00
2023-05-13T05:45:56.262Z,9.90
2023-05-13T05:50:59.762Z,9.90
2023-05-13T05:56:03.057Z,10.00
2023-05-13T06:01:08.169Z,10.00
2023-05-13T06:06:13.834Z,10.10
2023-05-13T06:11:17.634Z,10.10
2023-05-13T06:16:23.292Z,10.10
2023-05-13T06:21:28.600Z,10.20
2023-05-13T06:26:31.972Z,10.10
2023-05-13T06:31:37.248Z,10.30
2023-05-13T06:36:42.028Z,10.30
2023-05-13T06:41:45.922Z,10.40
2023-05-13T06:46:52.604Z,10.60
2023-05-13T06:51:57.043Z,10.70
2023-05-13T06:57:00.662Z,10.80
2023-05-13T07:02:06.288Z,10.60
2023-05-13T07:07:13.312Z,10.70
2023-05-13T07:12:17.955Z,10.80
2023-05-13T07:17:24.883Z,10.90
2023-05-13T07:22:28.633Z,11.10
2023-05-13T07:27:33.085Z,11.10
2023-05-13T07:32:39.940Z,11.10
2023-05-13T07:37:43.859Z,11.10
2023-05-13T07:42:53.255Z,11.10
2023-05-13T07:47:59.555Z,11.00
2023-05-13T07:53:04.398Z,11.00
2023-05-13T07:58:23.762Z,11.10
2023-05-13T08:03:28.619Z,11.20
2023-05-13T08:08:34.352Z,11.20
2023-05-13T08:13:40.649Z,11.30
2023-05-13T08:18:47.561Z,11.00
2023-05-13T08:23:52.430Z,11.10
2023-05-13T08:28:57.456Z,11.10
2023-05-13T08:34:02.401Z,11.00
2023-05-13T08:39:08.179Z,11.00
2023-05-13T08:44:14.404Z,11.20
2023-05-13T08:49:21.807Z,11.30
2023-05-13T08:54:27.318Z,11.50
2023-05-13T08:59:37.290Z,11.60
2023-05-13T09:04:44.628Z,11.60
2023-05-13T09:09:48.438Z,11.50
2023-05-13T09:14:54.961Z,11.60
2023-05-13T09:20:09.258Z,11.60
2023-05-13T09:25:16.916Z,11.60
2023-05-13T09:30:22.002Z,11.60
2023-05-13T09:35:27.793Z,11.80
2023-05-13T09:40:32.774Z,11.70
2023-05-13T09:45:37.044Z,12.10
2023-05-13T09:50:50.360Z,12.10
2023-05-13T09:55:56.308Z,12.10
2023-05-13T10:01:01.281Z,12.00
2023-05-13T10:06:07.203Z,12.30
2023-05-13T10:11:13.084Z,12.40
2023-05-13T10:16:18.692Z,12.30
2023-05-13T10:21:25.650Z,12.20
2023-05-13T10:26:34.550Z,12.20
2023-05-13T10:31:39.822Z,12.30
2023-05-13T10:37:05.488Z,12.20
2023-05-13T10:42:37.741Z,12.30
2023-05-13T10:47:42.131Z,12.20
2023-05-13T10:52:49.934Z,12.20
2023-05-13T10:58:11.270Z,12.40
2023-05-13T11:03:31.008Z,12.20
2023-05-13T11:08:43.621Z,12.30
2023-05-13T11:13:47.469Z,12.40
2023-05-13T11:18:52.310Z,12.60
2023-05-13T11:24:00.460Z,12.60
2023-05-13T11:29:06.927Z,12.90
2023-05-13T11:34:11.591Z,13.00
2023-05-13T11:39:18.907Z,13.10
2023-05-13T11:44:25.442Z,13.00
2023-05-13T11:49:36.890Z,13.20
2023-05-13T11:54:48.911Z,13.20
2023-05-13T11:59:54.046Z,13.30
2023-05-13T12:05:01.618Z,13.50
2023-05-13T12:10:08.408Z,13.50
2023-05-13T12:15:14.451Z,13.30
2023-05-13T12:20:19.420Z,13.30
2023-05-13T12:25:46.984Z,13.20
2023-05-13T12:30:54.685Z,13.00
2023-05-13T12:36:17.780Z,13.20
2023-05-13T12:41:26.440Z,13.50
2023-05-13T12:46:30.336Z,13.70
2023-05-13T12:51:34.341Z,13.40
2023-05-13T12:56:40.232Z,13.60
2023-05-13T13:01:44.002Z,13.60
2023-05-13T13:06:48.832Z,13.60
2023-05-13T13:11:53.596Z,13.90
2023-05-13T13:17:05.703Z,13.90
2023-05-13T13:22:09.202Z,13.90
2023-05-13T13:27:25.332Z,13.80
2023-05-13T13:32:29.956Z,14.10
2023-05-13T13:37:38.351Z,14.50
2023-05-13T13:42:51.270Z,14.70
2023-05-13T13:47:59.156Z,14.60
2023-05-13T13:53:02.707Z,14.40
2023-05-13T13:58:07.486Z,14.20
2023-05-13T14:03:20.049Z,14.40
2023-05-13T14:08:23.752Z,14.70
2023-05-13T14:13:28.652Z,14.80
2023-05-13T14:18:32.106Z,14.80
2023-05-13T14:23:35.603Z,14.60
2023-05-13T14:28:40.344Z,14.40
2023-05-13T14:33:43.694Z,14.70
2023-05-13T14:38:59.076Z,14.80
2023-05-13T14:44:06.258Z,14.70
2023-05-13T14:49:10.001Z,14.30
2023-05-13T14:54:15.670Z,14.30
2023-05-13T14:59:20.476Z,14.10
2023-05-13T15:04:28.128Z,14.20
2023-05-13T15:09:33.866Z,14.30
2023-05-13T15:14:38.791Z,14.00
2023-05-13T15:19:42.011Z,14.00
2023-05-13T15:24:45.537Z,14.40
2023-05-13T15:29:50.404Z,14.70
2023-05-13T15:34:59.376Z,14.50
2023-05-13T15:40:05.589Z,14.50
2023-05-13T15:45:12.845Z,14.50
2023-05-13T15:50:22.230Z,14.60
2023-05-13T15:55:30.680Z,14.70
2023-05-13T16:00:35.505Z,14.70
2023-05-13T16:05:41.891Z,14.40
2023-05-13T16:10:46.573Z,14.30
2023-05-13T16:15:55.952Z,13.90
2023-05-13T16:21:00.634Z,13.70
2023-05-13T16:26:04.372Z,13.40
2023-05-13T16:31:10.177Z,13.20
2023-05-13T16:36:13.478Z,13.30
2023-05-13T16:41:18.876Z,13.40
2023-05-13T16:46:23.695Z,13.20
2023-05-13T16:51:27.112Z,13.20
2023-05-13T16:56:31.403Z,13.20
2023-05-13T17:01:38.099Z,13.20
2023-05-13T17:06:41.576Z,13.20
2023-05-13T17:11:46.108Z,13.10
2023-05-13T17:16:53.019Z,13.20
2023-05-13T17:21:57.044Z,13.20
2023-05-13T17:27:02.439Z,13.20
2023-05-13T17:32:08.159Z,13.20
2023-05-13T17:37:12.616Z,13.20
2023-05-13T17:42:15.974Z,13.10
2023-05-13T17:47:24.127Z,13.10
2023-05-13T17:52:27.684Z,13.00
2023-05-13T17:57:34.084Z,12.90
2023-05-13T18:02:40.518Z,12.80
2023-05-13T18:07:44.064Z,12.60
2023-05-13T18:12:48.193Z,12.50
2023-05-13T18:17:56.116Z,12.50
2023-05-13T18:23:00.213Z,12.50
2023-05-13T18:28:05.113Z,12.40
2023-05-13T18:33:18.347Z,12.40
2023-05-13T18:38:29.702Z,12.30
2023-05-13T18:43:34.122Z,12.20
2023-05-13T18:48:39.371Z,12.20
2023-05-13T18:53:44.045Z,12.10
2023-05-13T18:58:48.690Z,12.10
2023-05-13T19:03:54.065Z,12.00
2023-05-13T19:09:00.499Z,11.90
2023-05-13T19:14:04.305Z,11.90
2023-05-13T19:19:11.365Z,11.90
2023-05-13T19:24:15.952Z,11.80
2023-05-13T19:29:24.430Z,11.80
2023-05-13T19:34:31.140Z,11.70
2023-05-13T19:39:35.017Z,11.40
2023-05-13T19:44:38.710Z,11.20
2023-05-13T19:50:01.413Z,11.00
2023-05-13T19:55:05.650Z,10.90
2023-05-13T20:00:12.850Z,10.80
2023-05-13T20:05:26.961Z,10.90
2023-05-13T20:10:30.346Z,11.00
2023-05-13T20:15:36.112Z,11.00
2023-05-13T20:20:47.108Z,11.10
2023-05-13T20:25:56.895Z,11.00
2023-05-13T20:31:10.720Z,11.00
2023-05-13T20:36:16.703Z,10.90
2023-05-13T20:41:26.360Z,10.60
2023-05-13T20:46:32.004Z,10.40
2023-05-13T20:51:39.552Z,10.30
2023-05-13T20:56:46.236Z,10.30
2023-05-13T21:01:52.707Z,10.30
2023-05-13T21:06:58.657Z,10.40
2023-05-13T21:12:02.367Z,10.50
2023-05-13T21:17:05.973Z,10.60
2023-05-13T21:22:13.372Z,10.60
2023-05-13T21:27:22.837Z,10.70
2023-05-13T21:32:27.956Z,10.70
2023-05-13T21:37:39.556Z,10.70
2023-05-13T21:42:47.503Z,10.70
2023-05-13T21:48:11.163Z,10.70
2023-05-13T21:53:39.905Z,10.80
2023-05-13T22:04:15.118Z,10.80
2023-05-13T22:09:20.375Z,10.70
2023-05-13T22:14:24.082Z,10.70
2023-05-13T22:19:29.184Z,10.60
2023-05-13T22:24:33.954Z,10.60
2023-05-13T22:29:37.494Z,10.60
2023-05-13T22:34:41.806Z,10.50
2023-05-13T22:39:47.911Z,10.50
2023-05-13T22:44:58.723Z,10.50
2023-05-13T22:50:02.316Z,10.40
2023-05-13T22:55:08.802Z,10.40
2023-05-13T23:00:13.452Z,10.40
2023-05-13T23:05:27.447Z,10.40
2023-05-13T23:10:38.103Z,10.40
2023-05-13T23:15:41.633Z,10.40
2023-05-13T23:20:50.860Z,10.30
2023-05-13T23:26:05.352Z,10.30
2023-05-13T23:31:10.095Z,10.30
2023-05-13T23:36:15.869Z,10.40
2023-05-13T23:41:21.867Z,10.30
2023-05-13T23:46:32.059Z,10.30
2023-05-13T23:51:37.143Z,10.30
2023-05-13T23:56:46.871Z,10.30
